Terminal Aerodrome Forecast
Issued by NWS Omaha/Valley, NE

Home | Current Version | Previous Version | Text Only | Print | Product List | Glossary Off
Versions: 1 2 3 4 5 6 7 8 9 10 11 12 13 14 15 16

000
FTUS43 KOAX 202328
TAFOFK
TAF
KOFK 202328Z 2100/2124 14007KT P6SM BKN045
      TEMPO 2104/2108 3SM TSRA BKN040CB
     FM210900 11005KT P6SM BKN100
     FM211000 12004KT 5SM BR BKN090
     FM211400 16006KT P6SM BKN100
     FM211600 19006KT P6SM BKN200
     FM212100 23009KT P6SM BKN130=

USA.gov is the U.S. government's official web portal to all federal, state and local government web resources and services.